Página principal
METAR-TAF:

METAR-TAF

Aeroportos :

Ada, Oklahoma, Estados Unidos

latitude: 34-48-16N, longitude: 096-40-17W, altura: 310 m

Observação actual do tempo

O boletim foi feito há 20 minutos, às 21:15 UTC
Vento 11 kt de su-sudeste
Temperatura 13°C
Humidade 72%
Pressão 1010 hPa
Visibilidade: 16.1 km
Nuvens dispersasa uma altura de 2400 ft

METAR: KADH 122115Z AUTO 16011KT 10SM SCT024 13/08 A2983 RMK AO2

Hora: 15:35 (21:35 UTC)


TAF: em falta

Observações e previsões do tempo de mais de 4000 aeroportos (mensagens METAR e TAF).

As estações disponíveis são os pontos amarelos e vermelhos sobre o mapa.

Mova o rato sobre o mapa para ver o nome da estação.

Depois clique no ponto para visualizar as observações e previsões meteorológicas.

Para alterar o mapa : clique nos botões verdes com uma cruz preta para aumentar o zoom; no botão verde com uma pitada de zoom; ou nas setas verdes para mapas adjacentes.


METAR-TAF: